sensor_id;sensor_type;location;lat;lon;timestamp;temperature;humidity
14188;DHT22;7175;51.978;5.330;2023-01-31T00:02:02;3.60;99.90
14188;DHT22;7175;51.978;5.330;2023-01-31T00:04:30;3.60;99.90
14188;DHT22;7175;51.978;5.330;2023-01-31T00:06:58;3.60;99.90
14188;DHT22;7175;51.978;5.330;2023-01-31T00:09:26;3.60;99.90
14188;DHT22;7175;51.978;5.330;2023-01-31T00:11:54;3.60;99.90
14188;DHT22;7175;51.978;5.330;2023-01-31T00:14:22;3.50;99.90
14188;DHT22;7175;51.978;5.330;2023-01-31T00:16:51;3.50;99.90
14188;DHT22;7175;51.978;5.330;2023-01-31T00:19:21;3.50;99.90
14188;DHT22;7175;51.978;5.330;2023-01-31T00:21:49;3.50;99.90
14188;DHT22;7175;51.978;5.330;2023-01-31T00:24:17;3.50;99.90
14188;DHT22;7175;51.978;5.330;2023-01-31T00:26:45;3.50;99.90
14188;DHT22;7175;51.978;5.330;2023-01-31T00:29:14;3.50;99.90
14188;DHT22;7175;51.978;5.330;2023-01-31T00:31:42;3.50;99.90
14188;DHT22;7175;51.978;5.330;2023-01-31T00:34:10;3.60;99.90
14188;DHT22;7175;51.978;5.330;2023-01-31T00:36:40;3.60;99.90
14188;DHT22;7175;51.978;5.330;2023-01-31T00:39:09;3.60;99.90
14188;DHT22;7175;51.978;5.330;2023-01-31T00:41:37;3.70;99.90
14188;DHT22;7175;51.978;5.330;2023-01-31T00:44:06;3.70;99.90
14188;DHT22;7175;51.978;5.330;2023-01-31T00:46:34;3.70;99.90
14188;DHT22;7175;51.978;5.330;2023-01-31T00:49:03;3.70;99.90
14188;DHT22;7175;51.978;5.330;2023-01-31T00:51:31;3.70;99.90
14188;DHT22;7175;51.978;5.330;2023-01-31T00:54:02;3.70;99.90
14188;DHT22;7175;51.978;5.330;2023-01-31T00:56:30;3.70;99.90
14188;DHT22;7175;51.978;5.330;2023-01-31T00:58:58;3.70;99.90
14188;DHT22;7175;51.978;5.330;2023-01-31T01:01:28;3.60;99.90
14188;DHT22;7175;51.978;5.330;2023-01-31T01:03:56;3.50;99.90
14188;DHT22;7175;51.978;5.330;2023-01-31T01:06:25;3.50;99.90
14188;DHT22;7175;51.978;5.330;2023-01-31T01:08:56;3.50;99.90
14188;DHT22;7175;51.978;5.330;2023-01-31T01:11:29;3.50;99.90
14188;DHT22;7175;51.978;5.330;2023-01-31T01:13:59;3.40;99.90
14188;DHT22;7175;51.978;5.330;2023-01-31T01:16:31;3.40;99.90
14188;DHT22;7175;51.978;5.330;2023-01-31T01:19:00;3.40;99.90
14188;DHT22;7175;51.978;5.330;2023-01-31T01:21:30;3.40;99.90
14188;DHT22;7175;51.978;5.330;2023-01-31T01:24:00;3.40;99.90
14188;DHT22;7175;51.978;5.330;2023-01-31T01:26:31;3.40;99.90
14188;DHT22;7175;51.978;5.330;2023-01-31T01:29:01;3.40;99.90
14188;DHT22;7175;51.978;5.330;2023-01-31T01:31:30;3.40;99.90
14188;DHT22;7175;51.978;5.330;2023-01-31T01:34:00;3.50;99.90
14188;DHT22;7175;51.978;5.330;2023-01-31T01:36:31;3.50;99.90
14188;DHT22;7175;51.978;5.330;2023-01-31T01:39:01;3.50;99.90
14188;DHT22;7175;51.978;5.330;2023-01-31T01:41:31;3.50;99.90
14188;DHT22;7175;51.978;5.330;2023-01-31T01:44:01;3.50;99.90
14188;DHT22;7175;51.978;5.330;2023-01-31T01:46:34;3.60;99.90
14188;DHT22;7175;51.978;5.330;2023-01-31T01:49:18;3.70;99.90
14188;DHT22;7175;51.978;5.330;2023-01-31T01:51:48;3.70;99.90
14188;DHT22;7175;51.978;5.330;2023-01-31T01:54:19;3.80;99.90
14188;DHT22;7175;51.978;5.330;2023-01-31T01:56:54;3.70;99.90
14188;DHT22;7175;51.978;5.330;2023-01-31T01:59:25;3.80;99.90
14188;DHT22;7175;51.978;5.330;2023-01-31T02:01:56;3.90;99.90
14188;DHT22;7175;51.978;5.330;2023-01-31T02:04:26;4.00;99.90
14188;DHT22;7175;51.978;5.330;2023-01-31T02:06:56;3.90;99.90
14188;DHT22;7175;51.978;5.330;2023-01-31T02:09:46;4.00;99.90
14188;DHT22;7175;51.978;5.330;2023-01-31T02:12:17;4.10;99.90
14188;DHT22;7175;51.978;5.330;2023-01-31T02:14:46;4.10;99.90
14188;DHT22;7175;51.978;5.330;2023-01-31T02:17:17;4.10;99.90
14188;DHT22;7175;51.978;5.330;2023-01-31T02:19:57;4.10;99.90
14188;DHT22;7175;51.978;5.330;2023-01-31T02:22:31;4.10;99.90
14188;DHT22;7175;51.978;5.330;2023-01-31T02:28:28;4.20;99.90
14188;DHT22;7175;51.978;5.330;2023-01-31T02:34:31;4.30;99.90
14188;DHT22;7175;51.978;5.330;2023-01-31T02:37:10;4.30;99.90
14188;DHT22;7175;51.978;5.330;2023-01-31T02:39:47;4.30;99.90
14188;DHT22;7175;51.978;5.330;2023-01-31T02:42:23;4.40;99.90
14188;DHT22;7175;51.978;5.330;2023-01-31T02:44:59;4.40;99.90
14188;DHT22;7175;51.978;5.330;2023-01-31T02:47:41;4.40;99.90
14188;DHT22;7175;51.978;5.330;2023-01-31T02:50:19;4.40;99.90
14188;DHT22;7175;51.978;5.330;2023-01-31T02:52:54;4.40;99.90
14188;DHT22;7175;51.978;5.330;2023-01-31T02:55:27;4.50;99.90
14188;DHT22;7175;51.978;5.330;2023-01-31T02:58:16;4.50;99.90
14188;DHT22;7175;51.978;5.330;2023-01-31T03:00:47;4.50;99.90
14188;DHT22;7175;51.978;5.330;2023-01-31T03:03:19;4.60;99.90
14188;DHT22;7175;51.978;5.330;2023-01-31T03:06:37;4.60;99.90
14188;DHT22;7175;51.978;5.330;2023-01-31T03:09:05;4.60;99.90
14188;DHT22;7175;51.978;5.330;2023-01-31T03:11:37;4.70;99.90
14188;DHT22;7175;51.978;5.330;2023-01-31T03:14:14;4.70;99.90
14188;DHT22;7175;51.978;5.330;2023-01-31T03:16:51;4.70;99.90
14188;DHT22;7175;51.978;5.330;2023-01-31T03:19:41;4.70;99.90
14188;DHT22;7175;51.978;5.330;2023-01-31T03:22:18;4.70;99.90
14188;DHT22;7175;51.978;5.330;2023-01-31T03:24:51;4.70;99.90
14188;DHT22;7175;51.978;5.330;2023-01-31T03:27:20;4.70;99.90
14188;DHT22;7175;51.978;5.330;2023-01-31T03:29:50;4.70;99.90
14188;DHT22;7175;51.978;5.330;2023-01-31T03:32:23;4.70;99.90
14188;DHT22;7175;51.978;5.330;2023-01-31T03:34:52;4.70;99.90
14188;DHT22;7175;51.978;5.330;2023-01-31T03:37:28;4.80;99.90
14188;DHT22;7175;51.978;5.330;2023-01-31T03:40:02;4.80;99.90
14188;DHT22;7175;51.978;5.330;2023-01-31T03:42:39;4.70;99.90
14188;DHT22;7175;51.978;5.330;2023-01-31T03:45:11;4.70;99.90
14188;DHT22;7175;51.978;5.330;2023-01-31T03:47:43;4.80;99.90
14188;DHT22;7175;51.978;5.330;2023-01-31T03:50:15;4.80;99.90
14188;DHT22;7175;51.978;5.330;2023-01-31T03:52:51;4.80;99.90
14188;DHT22;7175;51.978;5.330;2023-01-31T03:55:26;4.80;99.90
14188;DHT22;7175;51.978;5.330;2023-01-31T03:57:55;4.80;99.90
14188;DHT22;7175;51.978;5.330;2023-01-31T04:00:25;4.90;99.90
14188;DHT22;7175;51.978;5.330;2023-01-31T04:02:59;4.90;99.90
14188;DHT22;7175;51.978;5.330;2023-01-31T04:05:30;4.80;99.90
14188;DHT22;7175;51.978;5.330;2023-01-31T04:08:01;4.90;99.90
14188;DHT22;7175;51.978;5.330;2023-01-31T04:10:29;4.90;99.90
14188;DHT22;7175;51.978;5.330;2023-01-31T04:12:58;4.90;99.90
14188;DHT22;7175;51.978;5.330;2023-01-31T04:15:27;4.90;99.90
14188;DHT22;7175;51.978;5.330;2023-01-31T04:17:55;4.90;99.90
14188;DHT22;7175;51.978;5.330;2023-01-31T04:20:23;4.80;99.90
14188;DHT22;7175;51.978;5.330;2023-01-31T04:22:51;4.80;99.90
14188;DHT22;7175;51.978;5.330;2023-01-31T04:25:21;4.80;99.90
14188;DHT22;7175;51.978;5.330;2023-01-31T04:27:49;4.70;99.90
14188;DHT22;7175;51.978;5.330;2023-01-31T04:30:17;4.70;99.90
14188;DHT22;7175;51.978;5.330;2023-01-31T04:32:46;4.70;99.90
14188;DHT22;7175;51.978;5.330;2023-01-31T04:35:14;4.70;99.90
14188;DHT22;7175;51.978;5.330;2023-01-31T04:37:42;4.70;99.90
14188;DHT22;7175;51.978;5.330;2023-01-31T04:40:12;4.70;99.90
14188;DHT22;7175;51.978;5.330;2023-01-31T04:42:42;4.70;99.90
14188;DHT22;7175;51.978;5.330;2023-01-31T04:45:10;4.70;99.90
14188;DHT22;7175;51.978;5.330;2023-01-31T04:47:38;4.80;99.90
14188;DHT22;7175;51.978;5.330;2023-01-31T04:50:08;4.80;99.90
14188;DHT22;7175;51.978;5.330;2023-01-31T04:52:36;4.90;99.90
14188;DHT22;7175;51.978;5.330;2023-01-31T04:55:05;4.80;99.90
14188;DHT22;7175;51.978;5.330;2023-01-31T04:57:34;4.90;99.90
14188;DHT22;7175;51.978;5.330;2023-01-31T05:00:04;4.90;99.90
14188;DHT22;7175;51.978;5.330;2023-01-31T05:02:33;4.90;99.90
14188;DHT22;7175;51.978;5.330;2023-01-31T05:05:02;4.90;99.90
14188;DHT22;7175;51.978;5.330;2023-01-31T05:07:30;5.00;99.90
14188;DHT22;7175;51.978;5.330;2023-01-31T05:09:58;4.90;99.90
14188;DHT22;7175;51.978;5.330;2023-01-31T05:12:27;4.90;99.90
14188;DHT22;7175;51.978;5.330;2023-01-31T05:14:55;4.90;99.90
14188;DHT22;7175;51.978;5.330;2023-01-31T05:17:24;4.90;99.90
14188;DHT22;7175;51.978;5.330;2023-01-31T05:19:55;4.90;99.90
14188;DHT22;7175;51.978;5.330;2023-01-31T05:22:24;4.90;99.90
14188;DHT22;7175;51.978;5.330;2023-01-31T05:24:52;4.90;99.90
14188;DHT22;7175;51.978;5.330;2023-01-31T05:27:24;5.00;99.90
14188;DHT22;7175;51.978;5.330;2023-01-31T05:29:52;5.00;99.90
14188;DHT22;7175;51.978;5.330;2023-01-31T05:32:20;5.00;99.90
14188;DHT22;7175;51.978;5.330;2023-01-31T05:34:50;5.00;99.90
14188;DHT22;7175;51.978;5.330;2023-01-31T05:37:18;5.00;99.90
14188;DHT22;7175;51.978;5.330;2023-01-31T05:39:46;5.00;99.90
14188;DHT22;7175;51.978;5.330;2023-01-31T05:42:14;5.00;99.90
14188;DHT22;7175;51.978;5.330;2023-01-31T05:44:42;5.00;99.90
14188;DHT22;7175;51.978;5.330;2023-01-31T05:47:10;5.10;99.90
14188;DHT22;7175;51.978;5.330;2023-01-31T05:49:38;5.10;99.90
14188;DHT22;7175;51.978;5.330;2023-01-31T05:52:08;5.10;99.90
14188;DHT22;7175;51.978;5.330;2023-01-31T05:54:36;5.10;99.90
14188;DHT22;7175;51.978;5.330;2023-01-31T05:57:04;5.10;99.90
14188;DHT22;7175;51.978;5.330;2023-01-31T05:59:33;5.10;99.90
14188;DHT22;7175;51.978;5.330;2023-01-31T06:02:01;5.10;99.90
14188;DHT22;7175;51.978;5.330;2023-01-31T06:04:29;5.10;99.90
14188;DHT22;7175;51.978;5.330;2023-01-31T06:06:57;5.10;99.90
14188;DHT22;7175;51.978;5.330;2023-01-31T06:09:27;5.10;99.90
14188;DHT22;7175;51.978;5.330;2023-01-31T06:11:55;5.20;99.90
14188;DHT22;7175;51.978;5.330;2023-01-31T06:14:24;5.20;99.90
14188;DHT22;7175;51.978;5.330;2023-01-31T06:16:52;5.20;99.90
14188;DHT22;7175;51.978;5.330;2023-01-31T06:19:20;5.20;99.90
14188;DHT22;7175;51.978;5.330;2023-01-31T06:21:51;5.20;99.90
14188;DHT22;7175;51.978;5.330;2023-01-31T06:24:19;5.30;99.90
14188;DHT22;7175;51.978;5.330;2023-01-31T06:26:49;5.30;99.90
14188;DHT22;7175;51.978;5.330;2023-01-31T06:29:17;5.30;99.90
14188;DHT22;7175;51.978;5.330;2023-01-31T06:31:45;5.30;99.90
14188;DHT22;7175;51.978;5.330;2023-01-31T06:34:13;5.30;99.90
14188;DHT22;7175;51.978;5.330;2023-01-31T06:36:41;5.30;99.90
14188;DHT22;7175;51.978;5.330;2023-01-31T06:39:10;5.30;99.90
14188;DHT22;7175;51.978;5.330;2023-01-31T06:41:38;5.30;99.90
14188;DHT22;7175;51.978;5.330;2023-01-31T06:44:08;5.30;99.90
14188;DHT22;7175;51.978;5.330;2023-01-31T06:46:36;5.30;99.90
14188;DHT22;7175;51.978;5.330;2023-01-31T06:49:04;5.20;99.90
14188;DHT22;7175;51.978;5.330;2023-01-31T06:51:33;5.30;99.90
14188;DHT22;7175;51.978;5.330;2023-01-31T06:54:01;5.20;99.90
14188;DHT22;7175;51.978;5.330;2023-01-31T06:56:29;5.20;99.90
14188;DHT22;7175;51.978;5.330;2023-01-31T06:58:58;5.30;99.90
14188;DHT22;7175;51.978;5.330;2023-01-31T07:01:27;5.30;99.90
14188;DHT22;7175;51.978;5.330;2023-01-31T07:03:56;5.30;99.90
14188;DHT22;7175;51.978;5.330;2023-01-31T07:06:24;5.30;99.90
14188;DHT22;7175;51.978;5.330;2023-01-31T07:08:52;5.30;99.90
14188;DHT22;7175;51.978;5.330;2023-01-31T07:11:20;5.30;99.90
14188;DHT22;7175;51.978;5.330;2023-01-31T07:13:48;5.30;99.90
14188;DHT22;7175;51.978;5.330;2023-01-31T07:16:16;5.30;99.90
14188;DHT22;7175;51.978;5.330;2023-01-31T07:18:47;5.40;99.90
14188;DHT22;7175;51.978;5.330;2023-01-31T07:21:15;5.40;99.90
14188;DHT22;7175;51.978;5.330;2023-01-31T07:23:43;5.50;99.90
14188;DHT22;7175;51.978;5.330;2023-01-31T07:26:12;5.50;99.90
14188;DHT22;7175;51.978;5.330;2023-01-31T07:28:40;5.50;99.90
14188;DHT22;7175;51.978;5.330;2023-01-31T07:31:11;5.60;99.90
14188;DHT22;7175;51.978;5.330;2023-01-31T07:33:40;5.70;99.90
14188;DHT22;7175;51.978;5.330;2023-01-31T07:36:12;5.70;99.90
14188;DHT22;7175;51.978;5.330;2023-01-31T07:38:40;5.70;99.90
14188;DHT22;7175;51.978;5.330;2023-01-31T07:41:10;5.70;99.90
14188;DHT22;7175;51.978;5.330;2023-01-31T07:43:38;5.80;99.90
14188;DHT22;7175;51.978;5.330;2023-01-31T07:46:08;5.80;99.90
14188;DHT22;7175;51.978;5.330;2023-01-31T07:48:37;5.80;99.90
14188;DHT22;7175;51.978;5.330;2023-01-31T07:51:05;5.90;99.90
14188;DHT22;7175;51.978;5.330;2023-01-31T07:53:36;5.90;99.90
14188;DHT22;7175;51.978;5.330;2023-01-31T07:56:10;6.00;99.90
14188;DHT22;7175;51.978;5.330;2023-01-31T07:58:39;5.90;99.90
14188;DHT22;7175;51.978;5.330;2023-01-31T08:01:12;6.00;99.90
14188;DHT22;7175;51.978;5.330;2023-01-31T08:03:58;6.00;99.90
14188;DHT22;7175;51.978;5.330;2023-01-31T08:06:46;6.00;99.90
14188;DHT22;7175;51.978;5.330;2023-01-31T08:09:16;6.00;99.90
14188;DHT22;7175;51.978;5.330;2023-01-31T08:11:44;6.10;99.90
14188;DHT22;7175;51.978;5.330;2023-01-31T08:14:13;6.00;99.90
14188;DHT22;7175;51.978;5.330;2023-01-31T08:16:41;6.10;99.90
14188;DHT22;7175;51.978;5.330;2023-01-31T08:19:09;6.10;99.90
14188;DHT22;7175;51.978;5.330;2023-01-31T08:21:37;6.10;99.90
14188;DHT22;7175;51.978;5.330;2023-01-31T08:24:06;6.10;99.90
14188;DHT22;7175;51.978;5.330;2023-01-31T08:26:35;6.10;99.90
14188;DHT22;7175;51.978;5.330;2023-01-31T08:29:04;6.10;99.90
14188;DHT22;7175;51.978;5.330;2023-01-31T08:31:32;6.20;99.90
14188;DHT22;7175;51.978;5.330;2023-01-31T08:34:01;6.20;99.90
14188;DHT22;7175;51.978;5.330;2023-01-31T08:36:30;6.20;99.90
14188;DHT22;7175;51.978;5.330;2023-01-31T08:38:59;6.20;99.90
14188;DHT22;7175;51.978;5.330;2023-01-31T08:41:28;6.20;99.90
14188;DHT22;7175;51.978;5.330;2023-01-31T08:43:58;6.30;99.90
14188;DHT22;7175;51.978;5.330;2023-01-31T08:46:32;6.30;99.90
14188;DHT22;7175;51.978;5.330;2023-01-31T08:49:02;6.30;99.90
14188;DHT22;7175;51.978;5.330;2023-01-31T08:51:31;6.30;99.90
14188;DHT22;7175;51.978;5.330;2023-01-31T08:53:59;6.30;99.90
14188;DHT22;7175;51.978;5.330;2023-01-31T08:56:27;6.40;99.90
14188;DHT22;7175;51.978;5.330;2023-01-31T08:58:57;6.40;99.90
14188;DHT22;7175;51.978;5.330;2023-01-31T09:01:26;6.40;99.90
14188;DHT22;7175;51.978;5.330;2023-01-31T09:03:55;6.50;99.90
14188;DHT22;7175;51.978;5.330;2023-01-31T09:06:25;6.50;99.90
14188;DHT22;7175;51.978;5.330;2023-01-31T09:08:55;6.60;99.90
14188;DHT22;7175;51.978;5.330;2023-01-31T09:11:26;6.70;99.90
14188;DHT22;7175;51.978;5.330;2023-01-31T09:13:55;6.70;99.90
14188;DHT22;7175;51.978;5.330;2023-01-31T09:16:24;6.70;99.90
14188;DHT22;7175;51.978;5.330;2023-01-31T09:18:53;6.70;99.90
14188;DHT22;7175;51.978;5.330;2023-01-31T09:21:22;6.70;99.90
14188;DHT22;7175;51.978;5.330;2023-01-31T09:23:54;6.70;99.90
14188;DHT22;7175;51.978;5.330;2023-01-31T09:26:23;6.80;99.90
14188;DHT22;7175;51.978;5.330;2023-01-31T09:28:52;6.80;99.90
14188;DHT22;7175;51.978;5.330;2023-01-31T09:31:21;6.80;99.90
14188;DHT22;7175;51.978;5.330;2023-01-31T09:33:50;6.80;99.90
14188;DHT22;7175;51.978;5.330;2023-01-31T09:36:21;6.80;99.90
14188;DHT22;7175;51.978;5.330;2023-01-31T09:38:52;6.80;99.90
14188;DHT22;7175;51.978;5.330;2023-01-31T09:41:25;6.80;99.90
14188;DHT22;7175;51.978;5.330;2023-01-31T09:43:58;6.90;99.90
14188;DHT22;7175;51.978;5.330;2023-01-31T09:46:33;6.90;99.90
14188;DHT22;7175;51.978;5.330;2023-01-31T09:49:07;7.00;99.90
14188;DHT22;7175;51.978;5.330;2023-01-31T09:51:38;7.00;99.90
14188;DHT22;7175;51.978;5.330;2023-01-31T09:54:16;7.10;99.90
14188;DHT22;7175;51.978;5.330;2023-01-31T09:56:53;7.10;99.90
14188;DHT22;7175;51.978;5.330;2023-01-31T09:59:27;7.10;99.90
14188;DHT22;7175;51.978;5.330;2023-01-31T10:02:01;7.00;99.90
14188;DHT22;7175;51.978;5.330;2023-01-31T10:04:42;7.00;99.90
14188;DHT22;7175;51.978;5.330;2023-01-31T10:07:15;7.00;99.90
14188;DHT22;7175;51.978;5.330;2023-01-31T10:09:48;7.00;99.90
14188;DHT22;7175;51.978;5.330;2023-01-31T10:12:21;7.10;99.90
14188;DHT22;7175;51.978;5.330;2023-01-31T10:14:53;7.10;99.90
14188;DHT22;7175;51.978;5.330;2023-01-31T10:17:25;7.10;99.90
14188;DHT22;7175;51.978;5.330;2023-01-31T10:19:58;7.10;99.90
14188;DHT22;7175;51.978;5.330;2023-01-31T10:22:34;7.20;99.90
14188;DHT22;7175;51.978;5.330;2023-01-31T10:25:16;7.20;99.90
14188;DHT22;7175;51.978;5.330;2023-01-31T10:27:48;7.30;99.90
14188;DHT22;7175;51.978;5.330;2023-01-31T10:30:20;7.30;99.90
14188;DHT22;7175;51.978;5.330;2023-01-31T10:32:55;7.30;99.90
14188;DHT22;7175;51.978;5.330;2023-01-31T10:35:31;7.40;99.90
14188;DHT22;7175;51.978;5.330;2023-01-31T10:38:04;7.40;99.90
14188;DHT22;7175;51.978;5.330;2023-01-31T10:40:36;7.50;99.90
14188;DHT22;7175;51.978;5.330;2023-01-31T10:43:13;7.50;99.90
14188;DHT22;7175;51.978;5.330;2023-01-31T10:45:42;7.50;99.90
14188;DHT22;7175;51.978;5.330;2023-01-31T10:48:14;7.50;99.90
14188;DHT22;7175;51.978;5.330;2023-01-31T10:50:53;7.50;99.90
14188;DHT22;7175;51.978;5.330;2023-01-31T10:53:49;7.40;99.90
14188;DHT22;7175;51.978;5.330;2023-01-31T10:56:27;7.50;99.90
14188;DHT22;7175;51.978;5.330;2023-01-31T10:58:59;7.50;99.90
14188;DHT22;7175;51.978;5.330;2023-01-31T11:01:28;7.60;99.90
14188;DHT22;7175;51.978;5.330;2023-01-31T11:03:56;7.70;99.90
14188;DHT22;7175;51.978;5.330;2023-01-31T11:06:27;7.80;99.90
14188;DHT22;7175;51.978;5.330;2023-01-31T11:08:58;7.80;99.90
14188;DHT22;7175;51.978;5.330;2023-01-31T11:11:28;7.80;99.90
14188;DHT22;7175;51.978;5.330;2023-01-31T11:13:58;7.80;99.90
14188;DHT22;7175;51.978;5.330;2023-01-31T11:16:29;7.80;99.90
14188;DHT22;7175;51.978;5.330;2023-01-31T11:19:01;7.80;99.90
14188;DHT22;7175;51.978;5.330;2023-01-31T11:21:33;7.80;99.90
14188;DHT22;7175;51.978;5.330;2023-01-31T11:24:06;7.80;99.90
14188;DHT22;7175;51.978;5.330;2023-01-31T11:26:49;7.80;99.90
14188;DHT22;7175;51.978;5.330;2023-01-31T11:29:21;7.80;99.90
14188;DHT22;7175;51.978;5.330;2023-01-31T11:31:51;7.80;99.90
14188;DHT22;7175;51.978;5.330;2023-01-31T11:34:22;7.80;99.90
14188;DHT22;7175;51.978;5.330;2023-01-31T11:36:52;7.80;99.90
14188;DHT22;7175;51.978;5.330;2023-01-31T11:39:28;7.80;99.90
14188;DHT22;7175;51.978;5.330;2023-01-31T11:42:04;7.80;99.90
14188;DHT22;7175;51.978;5.330;2023-01-31T11:44:33;7.70;99.90
14188;DHT22;7175;51.978;5.330;2023-01-31T11:47:03;7.70;99.90
14188;DHT22;7175;51.978;5.330;2023-01-31T11:49:33;7.70;99.90
14188;DHT22;7175;51.978;5.330;2023-01-31T11:52:11;7.60;99.90
14188;DHT22;7175;51.978;5.330;2023-01-31T11:54:41;7.60;99.90
14188;DHT22;7175;51.978;5.330;2023-01-31T11:57:15;7.60;99.90
14188;DHT22;7175;51.978;5.330;2023-01-31T11:59:43;7.60;99.90
14188;DHT22;7175;51.978;5.330;2023-01-31T12:02:25;7.60;99.90
14188;DHT22;7175;51.978;5.330;2023-01-31T12:04:54;7.60;99.90
14188;DHT22;7175;51.978;5.330;2023-01-31T12:07:27;7.60;99.90
14188;DHT22;7175;51.978;5.330;2023-01-31T12:09:56;7.60;99.90
14188;DHT22;7175;51.978;5.330;2023-01-31T12:12:29;7.60;99.90
14188;DHT22;7175;51.978;5.330;2023-01-31T12:15:02;7.60;99.90
14188;DHT22;7175;51.978;5.330;2023-01-31T12:17:39;7.60;99.90
14188;DHT22;7175;51.978;5.330;2023-01-31T12:20:19;7.60;99.90
14188;DHT22;7175;51.978;5.330;2023-01-31T12:23:06;7.60;99.90
14188;DHT22;7175;51.978;5.330;2023-01-31T12:25:49;7.60;99.90
14188;DHT22;7175;51.978;5.330;2023-01-31T12:28:28;7.60;99.90
14188;DHT22;7175;51.978;5.330;2023-01-31T12:31:17;7.60;99.90
14188;DHT22;7175;51.978;5.330;2023-01-31T12:34:08;7.60;99.90
14188;DHT22;7175;51.978;5.330;2023-01-31T12:36:47;7.60;99.90
14188;DHT22;7175;51.978;5.330;2023-01-31T12:39:40;7.60;99.90
14188;DHT22;7175;51.978;5.330;2023-01-31T12:42:34;7.60;99.90
14188;DHT22;7175;51.978;5.330;2023-01-31T12:45:23;7.60;99.90
14188;DHT22;7175;51.978;5.330;2023-01-31T12:48:21;7.60;99.90
14188;DHT22;7175;51.978;5.330;2023-01-31T12:51:00;7.60;99.90
14188;DHT22;7175;51.978;5.330;2023-01-31T12:53:44;7.60;99.90
14188;DHT22;7175;51.978;5.330;2023-01-31T12:56:28;7.60;99.90
14188;DHT22;7175;51.978;5.330;2023-01-31T12:59:04;7.70;99.90
14188;DHT22;7175;51.978;5.330;2023-01-31T13:01:47;7.70;99.90
14188;DHT22;7175;51.978;5.330;2023-01-31T13:04:28;7.80;99.90
14188;DHT22;7175;51.978;5.330;2023-01-31T13:07:01;7.90;99.90
14188;DHT22;7175;51.978;5.330;2023-01-31T13:09:32;7.90;99.90
14188;DHT22;7175;51.978;5.330;2023-01-31T13:12:08;8.00;99.90
14188;DHT22;7175;51.978;5.330;2023-01-31T13:14:42;8.00;99.90
14188;DHT22;7175;51.978;5.330;2023-01-31T13:17:17;8.00;99.90
14188;DHT22;7175;51.978;5.330;2023-01-31T13:19:50;8.10;99.90
14188;DHT22;7175;51.978;5.330;2023-01-31T13:22:22;8.10;99.90
14188;DHT22;7175;51.978;5.330;2023-01-31T13:24:58;8.20;99.90
14188;DHT22;7175;51.978;5.330;2023-01-31T13:27:38;8.20;99.90
14188;DHT22;7175;51.978;5.330;2023-01-31T13:30:18;8.30;99.90
14188;DHT22;7175;51.978;5.330;2023-01-31T13:32:51;8.30;99.90
14188;DHT22;7175;51.978;5.330;2023-01-31T13:35:27;8.40;99.90
14188;DHT22;7175;51.978;5.330;2023-01-31T13:38:02;8.40;99.90
14188;DHT22;7175;51.978;5.330;2023-01-31T13:40:39;8.40;99.90
14188;DHT22;7175;51.978;5.330;2023-01-31T13:43:14;8.40;99.90
14188;DHT22;7175;51.978;5.330;2023-01-31T13:45:49;8.50;99.90
14188;DHT22;7175;51.978;5.330;2023-01-31T13:48:25;8.50;99.90
14188;DHT22;7175;51.978;5.330;2023-01-31T13:51:00;8.50;99.90
14188;DHT22;7175;51.978;5.330;2023-01-31T13:53:33;8.50;99.90
14188;DHT22;7175;51.978;5.330;2023-01-31T13:56:04;8.50;99.90
14188;DHT22;7175;51.978;5.330;2023-01-31T13:58:38;8.50;99.90
14188;DHT22;7175;51.978;5.330;2023-01-31T14:01:14;8.50;99.90
14188;DHT22;7175;51.978;5.330;2023-01-31T14:07:16;8.50;99.90
14188;DHT22;7175;51.978;5.330;2023-01-31T14:10:24;8.50;99.90
14188;DHT22;7175;51.978;5.330;2023-01-31T14:13:39;8.60;99.90
14188;DHT22;7175;51.978;5.330;2023-01-31T14:16:33;8.60;99.90
14188;DHT22;7175;51.978;5.330;2023-01-31T14:19:04;8.70;99.90
14188;DHT22;7175;51.978;5.330;2023-01-31T14:21:54;8.60;99.90
14188;DHT22;7175;51.978;5.330;2023-01-31T14:27:40;8.90;99.90
14188;DHT22;7175;51.978;5.330;2023-01-31T14:30:35;8.90;99.90
14188;DHT22;7175;51.978;5.330;2023-01-31T14:33:35;8.90;99.90
14188;DHT22;7175;51.978;5.330;2023-01-31T14:36:35;8.90;99.90
14188;DHT22;7175;51.978;5.330;2023-01-31T14:39:34;9.00;99.90
14188;DHT22;7175;51.978;5.330;2023-01-31T14:45:27;9.10;99.90
14188;DHT22;7175;51.978;5.330;2023-01-31T14:48:13;9.20;99.90
14188;DHT22;7175;51.978;5.330;2023-01-31T14:51:05;9.20;99.90
14188;DHT22;7175;51.978;5.330;2023-01-31T14:53:49;9.30;99.90
14188;DHT22;7175;51.978;5.330;2023-01-31T14:56:50;9.40;99.90
14188;DHT22;7175;51.978;5.330;2023-01-31T14:59:26;9.40;99.90
14188;DHT22;7175;51.978;5.330;2023-01-31T15:01:58;9.40;99.90
14188;DHT22;7175;51.978;5.330;2023-01-31T15:04:27;9.50;99.90
14188;DHT22;7175;51.978;5.330;2023-01-31T15:06:56;9.50;99.90
14188;DHT22;7175;51.978;5.330;2023-01-31T15:09:35;9.50;99.90
14188;DHT22;7175;51.978;5.330;2023-01-31T15:12:11;9.40;99.90
14188;DHT22;7175;51.978;5.330;2023-01-31T15:14:52;9.30;99.90
14188;DHT22;7175;51.978;5.330;2023-01-31T15:17:28;9.30;99.90
14188;DHT22;7175;51.978;5.330;2023-01-31T15:20:14;9.30;99.90
14188;DHT22;7175;51.978;5.330;2023-01-31T15:22:44;9.30;99.90
14188;DHT22;7175;51.978;5.330;2023-01-31T15:25:25;9.40;99.90
14188;DHT22;7175;51.978;5.330;2023-01-31T15:27:56;9.50;99.90
14188;DHT22;7175;51.978;5.330;2023-01-31T15:30:25;9.50;99.90
14188;DHT22;7175;51.978;5.330;2023-01-31T15:33:00;9.40;99.90
14188;DHT22;7175;51.978;5.330;2023-01-31T15:35:33;9.40;99.90
14188;DHT22;7175;51.978;5.330;2023-01-31T15:38:04;9.30;99.90
14188;DHT22;7175;51.978;5.330;2023-01-31T15:40:37;9.20;99.90
14188;DHT22;7175;51.978;5.330;2023-01-31T15:43:15;9.20;99.90
14188;DHT22;7175;51.978;5.330;2023-01-31T15:45:44;9.20;99.90
14188;DHT22;7175;51.978;5.330;2023-01-31T15:48:20;9.20;99.90
14188;DHT22;7175;51.978;5.330;2023-01-31T15:50:51;9.20;99.90
14188;DHT22;7175;51.978;5.330;2023-01-31T15:53:22;9.20;99.90
14188;DHT22;7175;51.978;5.330;2023-01-31T15:55:53;9.20;99.90
14188;DHT22;7175;51.978;5.330;2023-01-31T15:58:25;9.10;99.90
14188;DHT22;7175;51.978;5.330;2023-01-31T16:00:56;9.10;99.90
14188;DHT22;7175;51.978;5.330;2023-01-31T16:03:29;9.10;99.90
14188;DHT22;7175;51.978;5.330;2023-01-31T16:05:59;9.10;99.90
14188;DHT22;7175;51.978;5.330;2023-01-31T16:08:31;9.10;99.90
14188;DHT22;7175;51.978;5.330;2023-01-31T16:11:01;9.00;99.90
14188;DHT22;7175;51.978;5.330;2023-01-31T16:13:31;9.00;99.90
14188;DHT22;7175;51.978;5.330;2023-01-31T16:16:02;9.00;99.90
14188;DHT22;7175;51.978;5.330;2023-01-31T16:18:33;9.00;99.90
14188;DHT22;7175;51.978;5.330;2023-01-31T16:21:13;9.00;99.90
14188;DHT22;7175;51.978;5.330;2023-01-31T16:23:44;9.00;99.90
14188;DHT22;7175;51.978;5.330;2023-01-31T16:26:14;9.00;99.90
14188;DHT22;7175;51.978;5.330;2023-01-31T16:28:46;8.90;99.90
14188;DHT22;7175;51.978;5.330;2023-01-31T16:31:18;8.80;99.90
14188;DHT22;7175;51.978;5.330;2023-01-31T16:33:51;8.70;99.90
14188;DHT22;7175;51.978;5.330;2023-01-31T16:36:23;8.70;99.90
14188;DHT22;7175;51.978;5.330;2023-01-31T16:38:57;8.60;99.90
14188;DHT22;7175;51.978;5.330;2023-01-31T16:41:42;8.50;99.90
14188;DHT22;7175;51.978;5.330;2023-01-31T16:44:13;8.50;99.90
14188;DHT22;7175;51.978;5.330;2023-01-31T16:46:43;8.40;99.90
14188;DHT22;7175;51.978;5.330;2023-01-31T16:49:22;8.30;99.90
14188;DHT22;7175;51.978;5.330;2023-01-31T16:51:52;8.30;99.90
14188;DHT22;7175;51.978;5.330;2023-01-31T16:54:22;8.20;99.90
14188;DHT22;7175;51.978;5.330;2023-01-31T16:57:19;8.10;99.90